Time;durP1;ratioP1;P1;durP2;ratioP2;P2;SDS_P1;SDS_P2;PMS_P1;PMS_P2;Temp;Humidity;BMP_temperature;BMP_pressure;BME280_temperature;BME280_humidity;BME280_pressure;Samples;Min_cycle;Max_cycle;Signal;HPM_P1;HPM_P2
2022/03/22 00:01:38;;;;;;;2.23;1.40;;;;;;;;;;5005170;28;20313;-67
2022/03/22 00:04:04;;;;;;;2.47;1.53;;;;;;;;;;5004986;28;20212;-66
2022/03/22 00:06:34;;;;;;;4.10;1.67;;;;;;;;;;5006976;28;20189;-67
2022/03/22 00:09:01;;;;;;;3.07;1.43;;;;;;;;;;5003811;28;20287;-67
2022/03/22 00:11:27;;;;;;;2.60;1.60;;;;;;;;;;5005111;28;20189;-67
2022/03/22 00:13:54;;;;;;;2.00;1.50;;;;;;;;;;5020453;28;20196;-67
2022/03/22 00:16:21;;;;;;;1.90;1.40;;;;;;;;;;5020699;28;20315;-67
2022/03/22 00:18:48;;;;;;;2.10;1.70;;;;;;;;;;5004591;28;20256;-67
2022/03/22 00:21:14;;;;;;;2.40;1.50;;;;;;;;;;5004485;28;20208;-67
2022/03/22 00:23:41;;;;;;;2.10;1.50;;;;;;;;;;5005514;28;20188;-67
2022/03/22 00:26:07;;;;;;;2.50;1.70;;;;;;;;;;5020299;28;20251;-67
2022/03/22 00:28:34;;;;;;;1.70;1.40;;;;;;;;;;5004079;28;20192;-67
2022/03/22 00:31:02;;;;;;;2.93;1.60;;;;;;;;;;5022034;28;20681;-67
2022/03/22 00:33:29;;;;;;;1.97;1.50;;;;;;;;;;5003730;28;20207;-66
2022/03/22 00:35:55;;;;;;;3.60;1.33;;;;;;;;;;5004744;28;20240;-67
2022/03/22 00:38:22;;;;;;;1.90;1.57;;;;;;;;;;5006974;28;20208;-67
2022/03/22 00:40:49;;;;;;;2.73;1.60;;;;;;;;;;5005317;28;20192;-67
2022/03/22 00:43:16;;;;;;;1.97;1.73;;;;;;;;;;5005495;28;20867;-67
2022/03/22 00:45:42;;;;;;;2.57;1.60;;;;;;;;;;5021120;28;20224;-67
2022/03/22 00:48:13;;;;;;;2.97;1.80;;;;;;;;;;5004227;28;20904;-67
2022/03/22 00:50:43;;;;;;;2.77;1.80;;;;;;;;;;5002964;28;20284;-67
2022/03/22 00:53:10;;;;;;;4.23;1.80;;;;;;;;;;5004025;28;20203;-67
2022/03/22 00:55:40;;;;;;;2.83;2.20;;;;;;;;;;5004080;28;20185;-67
2022/03/22 00:58:06;;;;;;;3.70;1.97;;;;;;;;;;5019735;28;20207;-67
2022/03/22 01:00:34;;;;;;;2.37;1.77;;;;;;;;;;5003281;28;20646;-67
2022/03/22 01:03:04;;;;;;;2.33;1.80;;;;;;;;;;5019748;28;20189;-67
2022/03/22 01:05:31;;;;;;;1.40;1.30;;;;;;;;;;5005582;28;20244;-67
2022/03/22 01:08:01;;;;;;;5.33;1.73;;;;;;;;;;5004224;28;20574;-67
2022/03/22 01:10:30;;;;;;;3.00;1.90;;;;;;;;;;5003223;28;20531;-67
2022/03/22 01:12:57;;;;;;;2.17;1.60;;;;;;;;;;5006088;28;20192;-67
2022/03/22 01:15:28;;;;;;;3.77;1.63;;;;;;;;;;5003118;28;20189;-67
2022/03/22 01:17:56;;;;;;;2.77;1.60;;;;;;;;;;5002221;28;20189;-67
2022/03/22 01:20:26;;;;;;;7.73;2.00;;;;;;;;;;5003464;28;20195;-67
2022/03/22 01:22:53;;;;;;;2.77;1.70;;;;;;;;;;5004137;28;20222;-67
2022/03/22 01:25:23;;;;;;;2.20;1.80;;;;;;;;;;5005565;28;21033;-67
2022/03/22 01:27:51;;;;;;;4.07;1.63;;;;;;;;;;5002128;28;20251;-67
2022/03/22 01:30:20;;;;;;;3.03;1.90;;;;;;;;;;5005803;28;20196;-67
2022/03/22 01:32:49;;;;;;;2.93;1.60;;;;;;;;;;5004703;28;20188;-67
2022/03/22 01:35:17;;;;;;;2.13;1.60;;;;;;;;;;5003174;28;20189;-67
2022/03/22 01:37:47;;;;;;;2.33;1.60;;;;;;;;;;5003373;28;20216;-67
2022/03/22 01:40:15;;;;;;;4.50;1.70;;;;;;;;;;4999752;28;20204;-67
2022/03/22 01:42:42;;;;;;;5.30;1.90;;;;;;;;;;5002399;28;20510;-67
2022/03/22 01:45:10;;;;;;;2.50;1.63;;;;;;;;;;5002296;28;20213;-67
2022/03/22 01:47:41;;;;;;;1.97;1.60;;;;;;;;;;5019491;28;20216;-67
2022/03/22 01:50:12;;;;;;;2.03;1.50;;;;;;;;;;4999648;28;20196;-67
2022/03/22 01:52:40;;;;;;;2.47;1.50;;;;;;;;;;5018335;28;20295;-67
2022/03/22 01:55:08;;;;;;;3.20;1.80;;;;;;;;;;5005026;28;20181;-67
2022/03/22 01:57:35;;;;;;;3.90;2.00;;;;;;;;;;5002068;28;20200;-67
2022/03/22 02:00:07;;;;;;;2.30;1.67;;;;;;;;;;5004672;28;20210;-67
2022/03/22 02:08:11;;;;;;;3.27;1.83;;;;;;;;;;5004712;28;20665;-67
2022/03/22 02:10:38;;;;;;;3.73;1.87;;;;;;;;;;5002264;28;20247;-67
2022/03/22 02:13:05;;;;;;;2.97;2.10;;;;;;;;;;5002259;28;20203;-67
2022/03/22 02:15:32;;;;;;;2.57;1.70;;;;;;;;;;5003866;28;20219;-67
2022/03/22 02:17:59;;;;;;;2.70;1.73;;;;;;;;;;5002947;28;20299;-67
2022/03/22 02:20:27;;;;;;;2.80;1.70;;;;;;;;;;5007322;28;20685;-67
2022/03/22 02:22:59;;;;;;;5.37;1.70;;;;;;;;;;5002186;28;20195;-67
2022/03/22 02:25:25;;;;;;;2.43;1.90;;;;;;;;;;5002960;28;20935;-67
2022/03/22 02:27:52;;;;;;;3.23;2.00;;;;;;;;;;5003072;28;20456;-67
2022/03/22 02:30:20;;;;;;;3.57;1.87;;;;;;;;;;5004075;28;20197;-67
2022/03/22 02:32:56;;;;;;;2.63;1.70;;;;;;;;;;5019686;28;20197;-67
2022/03/22 02:35:24;;;;;;;3.43;1.63;;;;;;;;;;5019723;28;20208;-67
2022/03/22 02:37:51;;;;;;;3.03;1.90;;;;;;;;;;4986156;28;20189;-67
2022/03/22 02:40:19;;;;;;;3.17;1.47;;;;;;;;;;5002670;28;20244;-67
2022/03/22 02:42:50;;;;;;;2.77;1.87;;;;;;;;;;5003586;28;20243;-67
2022/03/22 02:45:18;;;;;;;3.27;1.67;;;;;;;;;;5018123;28;20318;-67
2022/03/22 02:47:45;;;;;;;2.80;1.50;;;;;;;;;;5002483;28;20220;-67
2022/03/22 02:50:12;;;;;;;3.00;1.77;;;;;;;;;;5005038;28;20189;-67
2022/03/22 02:52:40;;;;;;;5.30;1.90;;;;;;;;;;5004437;28;20193;-67
2022/03/22 02:55:09;;;;;;;3.10;1.70;;;;;;;;;;5003663;28;20745;-67
2022/03/22 02:57:37;;;;;;;2.83;1.73;;;;;;;;;;5000346;28;20251;-67
2022/03/22 03:00:06;;;;;;;3.40;1.70;;;;;;;;;;5000704;28;20271;-66
2022/03/22 03:02:39;;;;;;;3.97;1.80;;;;;;;;;;5018524;28;20840;-67
2022/03/22 03:05:08;;;;;;;2.50;1.60;;;;;;;;;;5004480;28;20246;-67
2022/03/22 03:07:34;;;;;;;2.27;1.50;;;;;;;;;;5001988;28;20697;-67
2022/03/22 03:10:01;;;;;;;2.53;1.60;;;;;;;;;;5003800;28;20199;-67
2022/03/22 03:12:28;;;;;;;3.63;1.60;;;;;;;;;;5016900;28;20207;-67
2022/03/22 03:14:54;;;;;;;1.90;1.70;;;;;;;;;;5003357;28;20207;-67
2022/03/22 03:17:21;;;;;;;3.70;1.77;;;;;;;;;;5000685;28;22226;-67
2022/03/22 03:19:47;;;;;;;4.40;1.87;;;;;;;;;;5016097;28;20242;-67
2022/03/22 03:22:14;;;;;;;3.83;1.60;;;;;;;;;;5005844;28;20238;-67
2022/03/22 03:24:40;;;;;;;3.07;1.83;;;;;;;;;;5001994;28;20210;-67
2022/03/22 03:27:09;;;;;;;3.33;1.87;;;;;;;;;;5003504;28;20200;-67
2022/03/22 03:29:36;;;;;;;2.10;1.80;;;;;;;;;;5000222;28;20208;-67
2022/03/22 03:32:03;;;;;;;2.17;1.90;;;;;;;;;;5003295;28;20184;-67
2022/03/22 03:34:29;;;;;;;3.20;1.87;;;;;;;;;;5003554;28;20189;-67
2022/03/22 03:36:56;;;;;;;2.53;1.80;;;;;;;;;;5002007;28;20215;-67
2022/03/22 03:39:22;;;;;;;3.83;1.80;;;;;;;;;;5015714;28;20205;-67
2022/03/22 03:41:55;;;;;;;3.33;1.73;;;;;;;;;;4985619;28;20343;-67
2022/03/22 03:47:16;;;;;;;3.57;2.07;;;;;;;;;;4998900;28;20189;-67
2022/03/22 03:49:46;;;;;;;2.37;1.80;;;;;;;;;;5002859;28;20255;-67
2022/03/22 03:52:18;;;;;;;2.87;1.93;;;;;;;;;;5002708;28;20584;-67
2022/03/22 03:54:45;;;;;;;3.10;1.80;;;;;;;;;;5002541;28;20193;-67
2022/03/22 03:57:12;;;;;;;3.73;1.90;;;;;;;;;;5002491;28;20195;-66
2022/03/22 03:59:40;;;;;;;4.23;1.80;;;;;;;;;;4999542;28;20197;-67
2022/03/22 04:02:08;;;;;;;2.97;1.87;;;;;;;;;;4983747;28;20280;-67
2022/03/22 04:04:36;;;;;;;4.13;2.10;;;;;;;;;;5002124;28;20244;-67
2022/03/22 04:07:03;;;;;;;2.40;1.70;;;;;;;;;;5001329;28;20670;-67
2022/03/22 04:09:32;;;;;;;2.50;1.90;;;;;;;;;;5006086;28;20200;-67
2022/03/22 04:11:59;;;;;;;3.90;1.93;;;;;;;;;;5005535;28;20278;-67
2022/03/22 04:14:27;;;;;;;2.60;1.57;;;;;;;;;;5003620;28;21012;-67
2022/03/22 04:16:56;;;;;;;3.43;1.70;;;;;;;;;;4987768;28;21095;-67
2022/03/22 04:19:24;;;;;;;2.53;2.07;;;;;;;;;;5005871;28;20272;-67
2022/03/22 04:21:50;;;;;;;2.63;1.80;;;;;;;;;;5006359;28;20193;-67
2022/03/22 04:24:18;;;;;;;2.93;1.57;;;;;;;;;;5004979;28;20577;-67
2022/03/22 04:26:45;;;;;;;3.83;2.10;;;;;;;;;;5019123;28;20284;-66
2022/03/22 04:34:45;;;;;;;4.97;1.70;;;;;;;;;;5006002;28;20263;-67
2022/03/22 04:37:13;;;;;;;2.80;1.80;;;;;;;;;;5019468;28;20231;-67
2022/03/22 04:39:45;;;;;;;4.00;1.90;;;;;;;;;;5005858;28;20653;-67
2022/03/22 04:42:16;;;;;;;3.47;1.90;;;;;;;;;;5004731;28;20196;-67
2022/03/22 04:44:43;;;;;;;4.77;2.20;;;;;;;;;;5005917;28;20221;-67
2022/03/22 04:47:09;;;;;;;2.73;2.00;;;;;;;;;;5003444;28;20189;-66
2022/03/22 04:49:36;;;;;;;2.57;1.90;;;;;;;;;;5005551;28;20526;-67
2022/03/22 04:57:33;;;;;;;2.57;1.97;;;;;;;;;;5003510;28;20212;-67
2022/03/22 05:00:00;;;;;;;4.17;2.00;;;;;;;;;;5003430;28;20188;-67
2022/03/22 05:02:26;;;;;;;3.43;2.23;;;;;;;;;;5004806;28;20181;-67
2022/03/22 05:04:53;;;;;;;3.37;2.10;;;;;;;;;;5003660;28;20259;-67
2022/03/22 05:07:20;;;;;;;3.00;1.90;;;;;;;;;;5004453;28;20201;-67
2022/03/22 05:09:46;;;;;;;4.80;1.80;;;;;;;;;;5005509;28;20199;-67
2022/03/22 05:12:13;;;;;;;6.53;2.23;;;;;;;;;;5003675;28;20292;-67
2022/03/22 05:14:41;;;;;;;4.50;2.03;;;;;;;;;;5002242;28;20193;-66
2022/03/22 05:17:09;;;;;;;4.27;1.90;;;;;;;;;;5001517;28;20279;-67
2022/03/22 05:19:36;;;;;;;4.73;2.40;;;;;;;;;;5019094;28;20196;-67
2022/03/22 05:22:04;;;;;;;3.10;1.90;;;;;;;;;;5019488;28;20682;-67
2022/03/22 05:24:31;;;;;;;2.60;2.00;;;;;;;;;;5005152;28;20654;-67
2022/03/22 05:26:58;;;;;;;3.87;2.10;;;;;;;;;;5001886;28;20200;-67
2022/03/22 05:29:24;;;;;;;6.27;2.10;;;;;;;;;;5002965;28;20852;-67
2022/03/22 05:31:51;;;;;;;4.60;2.23;;;;;;;;;;5003726;28;20195;-67
2022/03/22 05:34:17;;;;;;;3.83;2.27;;;;;;;;;;5002726;28;20181;-67
2022/03/22 05:36:44;;;;;;;3.50;2.30;;;;;;;;;;5003769;28;20204;-67
2022/03/22 05:39:10;;;;;;;3.00;2.03;;;;;;;;;;5002529;28;20791;-67
2022/03/22 05:41:37;;;;;;;4.37;2.23;;;;;;;;;;5002505;28;20278;-67
2022/03/22 05:44:04;;;;;;;2.67;1.90;;;;;;;;;;5004621;28;20637;-67
2022/03/22 05:46:31;;;;;;;4.50;2.07;;;;;;;;;;5004033;28;20205;-67
2022/03/22 05:48:58;;;;;;;2.27;1.60;;;;;;;;;;5003126;28;20196;-67
2022/03/22 05:51:24;;;;;;;2.87;1.83;;;;;;;;;;5001968;28;20185;-67
2022/03/22 05:53:51;;;;;;;2.67;1.77;;;;;;;;;;5003334;28;20542;-67
2022/03/22 05:56:17;;;;;;;6.07;1.90;;;;;;;;;;5005401;28;20641;-67
2022/03/22 05:58:44;;;;;;;4.40;2.10;;;;;;;;;;5001978;28;20211;-67
2022/03/22 06:01:12;;;;;;;3.37;1.80;;;;;;;;;;5018954;28;20319;-67
2022/03/22 06:03:38;;;;;;;2.97;1.93;;;;;;;;;;5001848;28;20196;-67
2022/03/22 06:06:05;;;;;;;3.93;1.80;;;;;;;;;;5000618;28;20231;-67
2022/03/22 06:08:32;;;;;;;6.30;1.80;;;;;;;;;;5017377;28;20192;-67
2022/03/22 06:10:58;;;;;;;5.13;1.70;;;;;;;;;;5018981;28;20312;-67
2022/03/22 06:13:25;;;;;;;2.87;1.60;;;;;;;;;;5002219;28;20212;-67
2022/03/22 06:15:52;;;;;;;3.60;1.80;;;;;;;;;;5002179;28;20276;-67
2022/03/22 06:18:18;;;;;;;2.20;1.67;;;;;;;;;;5001648;28;20795;-67
2022/03/22 06:20:45;;;;;;;4.90;2.03;;;;;;;;;;5001081;28;20189;-67
2022/03/22 06:23:13;;;;;;;3.23;1.53;;;;;;;;;;5003268;28;20215;-67
2022/03/22 06:25:41;;;;;;;2.77;1.47;;;;;;;;;;5002366;28;20213;-67
2022/03/22 06:28:09;;;;;;;1.83;1.57;;;;;;;;;;5004692;28;20193;-68
2022/03/22 06:30:36;;;;;;;3.00;1.80;;;;;;;;;;5000919;28;20688;-67
2022/03/22 06:33:29;;;;;;;2.10;1.60;;;;;;;;;;5004444;28;20193;-67
2022/03/22 06:35:56;;;;;;;4.13;1.50;;;;;;;;;;5000521;28;20225;-67
2022/03/22 06:38:22;;;;;;;2.93;1.73;;;;;;;;;;5000276;28;20196;-67
2022/03/22 06:40:50;;;;;;;5.77;2.10;;;;;;;;;;5004116;28;20189;-67
2022/03/22 06:43:18;;;;;;;3.77;1.77;;;;;;;;;;5017975;28;20201;-67
2022/03/22 06:45:46;;;;;;;4.93;1.60;;;;;;;;;;5004253;28;20303;-67
2022/03/22 06:48:14;;;;;;;2.73;1.50;;;;;;;;;;5000713;28;20197;-67
2022/03/22 06:50:42;;;;;;;4.60;1.50;;;;;;;;;;5018825;28;20211;-67
2022/03/22 06:53:09;;;;;;;2.90;1.90;;;;;;;;;;5000821;28;20370;-67
2022/03/22 06:55:37;;;;;;;2.20;1.50;;;;;;;;;;5001819;28;20185;-67
2022/03/22 06:58:05;;;;;;;8.40;1.60;;;;;;;;;;5003101;28;20193;-67
2022/03/22 07:00:32;;;;;;;4.60;1.60;;;;;;;;;;5017141;28;20197;-67
2022/03/22 07:03:03;;;;;;;3.37;1.60;;;;;;;;;;5003809;28;22405;-67
2022/03/22 07:05:30;;;;;;;4.27;1.97;;;;;;;;;;5001717;28;20575;-67
2022/03/22 07:07:57;;;;;;;2.13;1.50;;;;;;;;;;5002786;28;21368;-67
2022/03/22 07:10:25;;;;;;;1.73;1.40;;;;;;;;;;5002335;28;20271;-67
2022/03/22 07:12:54;;;;;;;5.43;1.53;;;;;;;;;;5001052;28;20808;-67
2022/03/22 07:15:26;;;;;;;3.03;1.43;;;;;;;;;;5002099;28;20220;-67
2022/03/22 07:17:53;;;;;;;2.60;1.40;;;;;;;;;;4987287;28;20212;-67
2022/03/22 07:20:21;;;;;;;4.67;1.60;;;;;;;;;;5018843;28;20197;-67
2022/03/22 07:22:48;;;;;;;3.17;1.60;;;;;;;;;;5018285;28;20541;-67
2022/03/22 07:25:16;;;;;;;3.80;1.60;;;;;;;;;;5002271;28;20205;-67
2022/03/22 07:27:43;;;;;;;2.70;1.80;;;;;;;;;;5015340;28;20189;-67
2022/03/22 07:30:11;;;;;;;3.20;1.60;;;;;;;;;;5003153;28;20204;-67
2022/03/22 07:32:41;;;;;;;4.00;1.30;;;;;;;;;;5004189;28;20188;-68
2022/03/22 07:35:10;;;;;;;2.10;1.40;;;;;;;;;;5001922;28;20986;-67
2022/03/22 07:37:41;;;;;;;1.63;1.30;;;;;;;;;;4999828;28;20208;-67
2022/03/22 07:40:09;;;;;;;1.80;1.60;;;;;;;;;;5018206;28;20231;-67
2022/03/22 07:42:37;;;;;;;2.03;1.40;;;;;;;;;;5001917;28;20606;-67
2022/03/22 07:45:10;;;;;;;1.40;1.27;;;;;;;;;;5007283;28;20209;-67
2022/03/22 07:47:41;;;;;;;2.17;1.50;;;;;;;;;;5005316;28;20193;-67
2022/03/22 07:53:06;;;;;;;7.73;1.70;;;;;;;;;;5004938;28;20200;-67
2022/03/22 07:55:39;;;;;;;2.23;1.60;;;;;;;;;;5006067;28;20203;-67
2022/03/22 07:58:07;;;;;;;2.00;1.30;;;;;;;;;;5006171;28;20203;-67
2022/03/22 08:00:35;;;;;;;3.07;1.67;;;;;;;;;;5008967;28;20220;-67
2022/03/22 08:03:03;;;;;;;1.60;1.50;;;;;;;;;;5001966;28;20196;-67
2022/03/22 08:05:31;;;;;;;3.87;1.70;;;;;;;;;;5004186;28;20270;-67
2022/03/22 08:08:01;;;;;;;4.20;1.60;;;;;;;;;;5005220;28;20217;-67
2022/03/22 08:10:28;;;;;;;2.60;1.70;;;;;;;;;;5005324;28;20204;-67
2022/03/22 08:12:55;;;;;;;2.13;1.33;;;;;;;;;;5003050;28;20198;-67
2022/03/22 08:15:21;;;;;;;3.23;1.40;;;;;;;;;;5001946;28;20259;-67
2022/03/22 08:17:48;;;;;;;2.33;1.50;;;;;;;;;;5004007;28;20216;-67
2022/03/22 08:20:15;;;;;;;2.57;1.50;;;;;;;;;;5019610;28;20334;-67
2022/03/22 08:22:54;;;;;;;3.97;1.33;;;;;;;;;;5018567;28;20193;-67
2022/03/22 08:25:31;;;;;;;1.63;1.43;;;;;;;;;;5005111;28;20220;-67
2022/03/22 08:27:59;;;;;;;4.87;1.70;;;;;;;;;;5006904;28;20283;-67
2022/03/22 08:30:27;;;;;;;4.23;1.40;;;;;;;;;;5004161;28;20212;-67
2022/03/22 08:32:56;;;;;;;2.17;1.60;;;;;;;;;;5006306;28;20196;-67
2022/03/22 08:35:24;;;;;;;1.80;1.30;;;;;;;;;;5006449;28;20227;-67
2022/03/22 08:37:51;;;;;;;1.70;1.50;;;;;;;;;;5005357;28;20239;-67
2022/03/22 08:40:18;;;;;;;3.70;1.70;;;;;;;;;;5001588;28;20303;-67
2022/03/22 08:42:47;;;;;;;3.33;2.00;;;;;;;;;;5009311;28;20201;-67
2022/03/22 08:45:15;;;;;;;3.83;1.60;;;;;;;;;;5005137;28;20211;-67
2022/03/22 08:47:45;;;;;;;6.67;1.90;;;;;;;;;;5003116;28;20288;-67
2022/03/22 08:50:14;;;;;;;2.73;1.60;;;;;;;;;;5022099;28;22117;-67
2022/03/22 08:52:42;;;;;;;4.50;1.93;;;;;;;;;;5005671;28;20189;-67
2022/03/22 08:55:12;;;;;;;3.97;1.90;;;;;;;;;;5001303;28;20204;-67
2022/03/22 08:57:42;;;;;;;5.30;1.73;;;;;;;;;;5007837;28;20199;-67
2022/03/22 09:00:11;;;;;;;2.60;1.70;;;;;;;;;;5018728;28;20280;-67
2022/03/22 09:02:38;;;;;;;5.47;1.53;;;;;;;;;;5006822;28;20216;-67
2022/03/22 09:07:52;;;;;;;3.83;1.80;;;;;;;;;;5007322;28;20197;-67
2022/03/22 09:10:23;;;;;;;2.60;1.53;;;;;;;;;;5006019;28;20259;-67
2022/03/22 09:12:50;;;;;;;2.13;1.50;;;;;;;;;;5005360;28;20578;-67
2022/03/22 09:15:22;;;;;;;3.80;1.70;;;;;;;;;;5004042;28;20197;-67
2022/03/22 09:17:49;;;;;;;1.90;1.57;;;;;;;;;;5018328;28;20204;-67
2022/03/22 09:20:19;;;;;;;3.10;2.10;;;;;;;;;;5004811;28;20539;-67
2022/03/22 09:22:51;;;;;;;5.60;3.40;;;;;;;;;;5004604;28;20922;-67
2022/03/22 09:25:20;;;;;;;5.83;1.90;;;;;;;;;;5019640;28;20225;-67
2022/03/22 09:27:47;;;;;;;2.73;1.60;;;;;;;;;;5016522;28;20601;-67
2022/03/22 09:30:14;;;;;;;6.57;3.30;;;;;;;;;;5008200;28;20300;-68
2022/03/22 09:32:42;;;;;;;5.73;2.20;;;;;;;;;;5017926;28;20733;-67
2022/03/22 09:35:11;;;;;;;4.67;2.43;;;;;;;;;;5005263;28;20195;-68
2022/03/22 09:37:41;;;;;;;5.10;2.50;;;;;;;;;;5004395;28;20223;-67
2022/03/22 09:40:09;;;;;;;4.80;2.60;;;;;;;;;;5004038;28;20237;-67
2022/03/22 09:42:42;;;;;;;2.00;1.50;;;;;;;;;;5020710;28;20832;-67
2022/03/22 09:48:39;;;;;;;1.90;1.60;;;;;;;;;;5002698;28;20935;-68
2022/03/22 09:53:53;;;;;;;4.27;1.60;;;;;;;;;;4991186;28;20192;-67
2022/03/22 09:56:20;;;;;;;5.47;1.70;;;;;;;;;;5007692;28;20251;-67
2022/03/22 09:58:48;;;;;;;3.30;1.60;;;;;;;;;;4987098;28;20259;-67
2022/03/22 10:01:17;;;;;;;3.87;2.30;;;;;;;;;;5003843;28;20204;-67
2022/03/22 10:03:54;;;;;;;3.07;2.30;;;;;;;;;;4999201;28;20257;-67
2022/03/22 10:06:22;;;;;;;10.93;5.40;;;;;;;;;;4986658;28;20208;-67
2022/03/22 10:08:51;;;;;;;12.77;5.73;;;;;;;;;;4984322;28;20200;-66
2022/03/22 10:11:18;;;;;;;9.00;4.90;;;;;;;;;;5002520;28;20306;-67
2022/03/22 10:13:57;;;;;;;6.17;3.40;;;;;;;;;;4986366;28;20218;-67
2022/03/22 10:16:24;;;;;;;11.67;3.73;;;;;;;;;;5004930;28;20199;-67
2022/03/22 10:18:50;;;;;;;6.40;2.70;;;;;;;;;;4987507;28;20260;-67
2022/03/22 10:21:18;;;;;;;6.87;2.90;;;;;;;;;;5005865;28;20189;-67
2022/03/22 10:23:53;;;;;;;4.77;1.97;;;;;;;;;;5002859;28;20235;-67
2022/03/22 10:26:20;;;;;;;7.87;2.50;;;;;;;;;;5006379;28;20212;-67
2022/03/22 10:28:55;;;;;;;4.77;2.87;;;;;;;;;;5002541;28;20288;-67
2022/03/22 10:31:40;;;;;;;5.33;2.40;;;;;;;;;;5003588;28;20969;-67
2022/03/22 10:34:09;;;;;;;10.10;2.20;;;;;;;;;;5001475;28;20195;-67
2022/03/22 10:36:36;;;;;;;5.10;2.57;;;;;;;;;;5006413;28;20270;-67
2022/03/22 10:39:08;;;;;;;4.83;2.47;;;;;;;;;;5006637;28;20204;-67
2022/03/22 10:41:41;;;;;;;8.33;4.17;;;;;;;;;;5008375;28;20662;-67
2022/03/22 10:44:14;;;;;;;5.53;4.10;;;;;;;;;;5006380;28;20189;-67
2022/03/22 10:46:45;;;;;;;5.83;3.20;;;;;;;;;;5006797;28;20227;-67
2022/03/22 10:49:18;;;;;;;3.77;2.43;;;;;;;;;;5007061;28;20216;-67
2022/03/22 10:51:49;;;;;;;6.40;2.27;;;;;;;;;;4990628;28;20184;-67
2022/03/22 10:54:20;;;;;;;3.00;2.40;;;;;;;;;;5007217;28;20933;-67
2022/03/22 10:56:48;;;;;;;6.77;2.20;;;;;;;;;;5008314;28;20235;-67
2022/03/22 10:59:16;;;;;;;6.60;2.67;;;;;;;;;;5006707;28;20185;-67
2022/03/22 11:01:45;;;;;;;2.03;1.80;;;;;;;;;;5007528;28;20189;-67
2022/03/22 11:04:15;;;;;;;5.23;3.00;;;;;;;;;;5007516;28;20213;-67
2022/03/22 11:06:43;;;;;;;5.47;3.47;;;;;;;;;;5008238;28;20192;-67
2022/03/22 11:09:12;;;;;;;5.00;3.23;;;;;;;;;;5007320;28;20199;-67
2022/03/22 11:11:39;;;;;;;17.20;10.00;;;;;;;;;;5008726;28;20205;-67
2022/03/22 11:14:05;;;;;;;22.80;16.40;;;;;;;;;;4996609;28;20647;-67
2022/03/22 11:16:34;;;;;;;13.67;10.00;;;;;;;;;;4987397;28;20681;-67
2022/03/22 11:19:03;;;;;;;5.03;3.57;;;;;;;;;;5006547;28;20622;-67
2022/03/22 11:21:30;;;;;;;3.30;2.80;;;;;;;;;;5002601;28;20193;-67
2022/03/22 11:24:11;;;;;;;3.53;2.67;;;;;;;;;;5012634;28;20185;-67
2022/03/22 11:26:46;;;;;;;4.80;2.43;;;;;;;;;;5012046;28;20212;-67
2022/03/22 11:35:25;;;;;;;4.00;2.63;;;;;;;;;;5012781;28;20181;-67
2022/03/22 11:38:00;;;;;;;3.20;2.73;;;;;;;;;;5010409;28;20251;-66
2022/03/22 11:43:15;;;;;;;3.67;2.67;;;;;;;;;;5010270;28;20584;-67
2022/03/22 11:45:51;;;;;;;2.83;2.57;;;;;;;;;;5012609;28;20208;-67
2022/03/22 11:48:30;;;;;;;3.60;2.30;;;;;;;;;;5010150;28;20211;-67
2022/03/22 11:51:04;;;;;;;2.47;2.03;;;;;;;;;;5011321;28;20282;-67
2022/03/22 11:53:44;;;;;;;3.47;2.40;;;;;;;;;;5012211;28;20180;-67
2022/03/22 11:56:12;;;;;;;3.80;2.50;;;;;;;;;;4999147;28;20208;-67
2022/03/22 11:58:50;;;;;;;5.33;2.30;;;;;;;;;;4991484;28;20197;-67
2022/03/22 12:01:17;;;;;;;5.43;2.50;;;;;;;;;;4974860;28;20240;-66
2022/03/22 12:03:53;;;;;;;6.10;3.63;;;;;;;;;;4991164;28;20182;-67
2022/03/22 12:06:20;;;;;;;3.97;3.17;;;;;;;;;;4993896;28;20217;-67
2022/03/22 12:08:46;;;;;;;3.37;2.57;;;;;;;;;;5010036;28;20911;-67
2022/03/22 12:11:18;;;;;;;5.00;2.87;;;;;;;;;;5010288;28;20276;-67
2022/03/22 12:13:49;;;;;;;4.53;2.77;;;;;;;;;;5003159;28;21577;-67
2022/03/22 12:16:16;;;;;;;3.87;2.60;;;;;;;;;;4990948;28;20284;-67
2022/03/22 12:18:43;;;;;;;2.37;2.10;;;;;;;;;;4990184;28;20512;-67
2022/03/22 12:21:18;;;;;;;3.27;2.40;;;;;;;;;;4990657;28;20511;-67
2022/03/22 12:23:46;;;;;;;2.53;2.23;;;;;;;;;;4993930;28;20377;-67
2022/03/22 12:26:13;;;;;;;4.50;2.90;;;;;;;;;;5011517;28;20217;-68
2022/03/22 12:28:54;;;;;;;3.53;2.60;;;;;;;;;;5010671;28;20250;-67
2022/03/22 12:31:21;;;;;;;4.20;2.47;;;;;;;;;;5009945;28;20196;-67
2022/03/22 12:33:51;;;;;;;6.67;3.23;;;;;;;;;;5011691;28;20250;-67
2022/03/22 12:36:20;;;;;;;10.47;5.23;;;;;;;;;;5009993;28;20209;-67
2022/03/22 12:38:47;;;;;;;6.40;4.00;;;;;;;;;;5010662;28;20801;-67
2022/03/22 12:41:14;;;;;;;5.13;2.90;;;;;;;;;;5026630;28;20211;-67
2022/03/22 12:43:45;;;;;;;4.07;2.80;;;;;;;;;;5010860;28;20638;-67
2022/03/22 12:46:15;;;;;;;6.37;3.90;;;;;;;;;;5009984;28;20212;-67
2022/03/22 12:48:42;;;;;;;6.57;3.77;;;;;;;;;;5010382;28;20197;-67
2022/03/22 12:51:10;;;;;;;4.47;2.80;;;;;;;;;;5009814;28;20193;-67
2022/03/22 12:53:37;;;;;;;3.70;2.77;;;;;;;;;;5011265;28;20579;-67
2022/03/22 12:56:17;;;;;;;4.90;2.57;;;;;;;;;;5009750;28;20224;-67
2022/03/22 12:58:44;;;;;;;3.43;2.20;;;;;;;;;;5010133;28;20448;-67
2022/03/22 13:01:10;;;;;;;4.07;2.20;;;;;;;;;;5009553;28;20588;-67
2022/03/22 13:03:38;;;;;;;4.07;2.70;;;;;;;;;;5009652;28;20185;-67
2022/03/22 13:06:07;;;;;;;3.93;2.30;;;;;;;;;;5010446;28;20213;-67
2022/03/22 13:11:26;;;;;;;3.93;2.40;;;;;;;;;;5010650;28;20212;-67
2022/03/22 13:16:41;;;;;;;3.37;2.57;;;;;;;;;;4990584;28;20229;-67
2022/03/22 13:19:09;;;;;;;3.53;2.40;;;;;;;;;;4989979;28;20198;-67
2022/03/22 13:21:40;;;;;;;2.40;2.20;;;;;;;;;;4991076;28;20192;-67
2022/03/22 13:24:12;;;;;;;2.40;2.00;;;;;;;;;;4993007;28;20184;-67
2022/03/22 13:27:02;;;;;;;4.73;1.70;;;;;;;;;;5005532;28;20594;-67
2022/03/22 13:29:38;;;;;;;2.40;1.90;;;;;;;;;;5008597;28;20247;-67
2022/03/22 13:32:07;;;;;;;2.70;2.10;;;;;;;;;;5010049;28;20181;-67
2022/03/22 13:34:36;;;;;;;2.13;1.70;;;;;;;;;;5010176;28;20200;-67
2022/03/22 13:37:12;;;;;;;6.63;2.30;;;;;;;;;;5007998;28;20379;-67
2022/03/22 13:39:41;;;;;;;2.17;1.80;;;;;;;;;;5008348;28;20204;-67
2022/03/22 13:42:19;;;;;;;4.73;2.07;;;;;;;;;;5024190;28;20560;-67
2022/03/22 13:44:50;;;;;;;3.13;1.90;;;;;;;;;;5009835;28;20212;-67
2022/03/22 13:47:41;;;;;;;3.03;2.10;;;;;;;;;;5009564;28;20192;-67
2022/03/22 13:50:14;;;;;;;3.97;2.20;;;;;;;;;;5008889;28;20674;-67
2022/03/22 13:52:42;;;;;;;2.17;1.97;;;;;;;;;;5010009;28;20189;-67
2022/03/22 13:55:19;;;;;;;2.90;2.00;;;;;;;;;;5010301;28;20948;-67
2022/03/22 13:57:54;;;;;;;2.50;1.70;;;;;;;;;;5009636;28;20193;-67
2022/03/22 14:00:20;;;;;;;2.23;2.03;;;;;;;;;;5009771;28;20187;-67
2022/03/22 14:02:48;;;;;;;2.30;2.10;;;;;;;;;;5008620;28;20211;-67
2022/03/22 14:05:14;;;;;;;4.77;2.00;;;;;;;;;;5009658;28;20274;-67
2022/03/22 14:07:56;;;;;;;2.10;1.90;;;;;;;;;;5008164;28;20185;-67
2022/03/22 14:10:23;;;;;;;2.17;1.87;;;;;;;;;;5009588;28;20577;-67
2022/03/22 14:12:49;;;;;;;3.30;2.00;;;;;;;;;;5006975;28;20279;-67
2022/03/22 14:15:17;;;;;;;5.20;2.60;;;;;;;;;;4989802;28;20799;-67
2022/03/22 14:17:46;;;;;;;3.10;1.80;;;;;;;;;;4989487;28;20611;-67
2022/03/22 14:20:17;;;;;;;2.40;1.90;;;;;;;;;;4989807;28;20204;-67
2022/03/22 14:22:48;;;;;;;2.83;1.73;;;;;;;;;;4990144;28;20221;-67
2022/03/22 14:25:16;;;;;;;4.27;1.77;;;;;;;;;;4992700;28;20742;-67
2022/03/22 14:27:45;;;;;;;2.87;1.77;;;;;;;;;;5007350;28;20598;-67
2022/03/22 14:30:15;;;;;;;2.10;1.70;;;;;;;;;;5007631;28;20192;-67
2022/03/22 14:32:53;;;;;;;2.13;1.80;;;;;;;;;;5023975;28;20694;-67
2022/03/22 14:38:08;;;;;;;3.17;1.80;;;;;;;;;;5008248;28;20193;-67
2022/03/22 14:40:37;;;;;;;2.57;1.73;;;;;;;;;;5009011;28;20204;-67
2022/03/22 14:43:06;;;;;;;3.70;2.00;;;;;;;;;;5009045;28;20630;-67
2022/03/22 14:45:33;;;;;;;3.10;1.90;;;;;;;;;;5023858;28;20239;-68
2022/03/22 14:48:00;;;;;;;3.57;2.03;;;;;;;;;;4990242;28;20192;-68
2022/03/22 14:50:27;;;;;;;2.80;2.10;;;;;;;;;;5009034;28;20185;-68
2022/03/22 14:55:39;;;;;;;5.23;1.90;;;;;;;;;;5009057;28;20201;-68
2022/03/22 15:00:54;;;;;;;2.17;1.63;;;;;;;;;;5008865;28;20652;-68
2022/03/22 15:03:27;;;;;;;1.87;1.50;;;;;;;;;;4990913;28;20684;-68
2022/03/22 15:05:59;;;;;;;2.10;1.60;;;;;;;;;;5023298;28;20295;-67
2022/03/22 15:08:27;;;;;;;2.03;1.60;;;;;;;;;;5003444;28;20193;-68
2022/03/22 15:10:55;;;;;;;2.37;1.50;;;;;;;;;;5008333;28;20205;-68
2022/03/22 15:13:24;;;;;;;5.33;1.70;;;;;;;;;;4992787;28;20200;-68
2022/03/22 15:15:53;;;;;;;2.07;1.87;;;;;;;;;;5008852;28;20235;-68
2022/03/22 15:18:20;;;;;;;2.63;1.90;;;;;;;;;;5007924;28;20224;-67
2022/03/22 15:20:47;;;;;;;2.37;1.80;;;;;;;;;;5023344;28;20227;-68
2022/03/22 15:23:16;;;;;;;2.40;1.77;;;;;;;;;;5007346;28;20192;-67
2022/03/22 15:25:47;;;;;;;1.90;1.67;;;;;;;;;;5001313;28;20223;-67
2022/03/22 15:28:16;;;;;;;2.13;1.83;;;;;;;;;;5022705;28;20181;-67
2022/03/22 15:30:44;;;;;;;2.43;2.00;;;;;;;;;;5008465;28;20196;-67
2022/03/22 15:33:14;;;;;;;4.27;2.17;;;;;;;;;;5023211;28;20259;-67
2022/03/22 15:35:43;;;;;;;2.63;2.17;;;;;;;;;;5008496;28;20732;-67
2022/03/22 15:38:11;;;;;;;3.00;2.10;;;;;;;;;;5022934;28;20196;-67
2022/03/22 15:40:38;;;;;;;2.17;1.93;;;;;;;;;;5003592;28;20219;-67
2022/03/22 15:43:08;;;;;;;2.63;1.90;;;;;;;;;;4988727;28;20192;-67
2022/03/22 15:45:36;;;;;;;2.57;2.10;;;;;;;;;;4988879;28;20213;-66
2022/03/22 15:48:04;;;;;;;2.10;1.87;;;;;;;;;;5002987;28;20294;-67